Terminal Aerodrome Forecast
Issued by NWS St Louis, MO

Home | Current Version | Previous Version | Text Only | Print | Product List | Glossary On
Versions: 1 2 3 4 5 6 7 8 9 10 11 12 13 14 15 16 17 18 19 20 21 22 23 24 25 26 27
905
FTUS43 KLSX 200539
TAFCOU
TAF
KCOU 200539Z 2006/2106 20012KT P6SM OVC250
     FM201000 21011KT P6SM OVC018
     FM201800 20008KT P6SM OVC025
     FM210000 15008KT P6SM OVC015=

USA.gov is the U.S. government's official web portal to all federal, state and local government web resources and services.